sensor_id;sensor_type;location;lat;lon;timestamp;P1;durP1;ratioP1;P2;durP2;ratioP2
14754;SDS011;7469;50.906;6.952;2023-09-18T00:01:11;8.27;;;4.80;;
14754;SDS011;7469;50.906;6.952;2023-09-18T00:03:39;7.13;;;4.77;;
14754;SDS011;7469;50.906;6.952;2023-09-18T00:06:08;5.50;;;4.50;;
14754;SDS011;7469;50.906;6.952;2023-09-18T00:08:39;8.67;;;4.93;;
14754;SDS011;7469;50.906;6.952;2023-09-18T00:11:07;8.97;;;5.10;;
14754;SDS011;7469;50.906;6.952;2023-09-18T00:13:36;7.20;;;5.30;;
14754;SDS011;7469;50.906;6.952;2023-09-18T00:16:05;9.87;;;4.97;;
14754;SDS011;7469;50.906;6.952;2023-09-18T00:18:33;9.40;;;5.30;;
14754;SDS011;7469;50.906;6.952;2023-09-18T00:21:01;8.60;;;5.00;;
14754;SDS011;7469;50.906;6.952;2023-09-18T00:23:29;5.70;;;4.50;;
14754;SDS011;7469;50.906;6.952;2023-09-18T00:25:59;9.93;;;4.73;;
14754;SDS011;7469;50.906;6.952;2023-09-18T00:28:27;6.70;;;4.70;;
14754;SDS011;7469;50.906;6.952;2023-09-18T00:30:55;10.17;;;4.83;;
14754;SDS011;7469;50.906;6.952;2023-09-18T00:33:22;10.97;;;4.40;;
14754;SDS011;7469;50.906;6.952;2023-09-18T00:35:51;8.60;;;5.30;;
14754;SDS011;7469;50.906;6.952;2023-09-18T00:38:19;8.87;;;4.87;;
14754;SDS011;7469;50.906;6.952;2023-09-18T00:40:47;8.43;;;4.93;;
14754;SDS011;7469;50.906;6.952;2023-09-18T00:43:16;11.20;;;4.47;;
14754;SDS011;7469;50.906;6.952;2023-09-18T00:45:45;9.03;;;5.00;;
14754;SDS011;7469;50.906;6.952;2023-09-18T00:48:17;6.43;;;4.43;;
14754;SDS011;7469;50.906;6.952;2023-09-18T00:50:45;8.50;;;4.80;;
14754;SDS011;7469;50.906;6.952;2023-09-18T00:53:14;7.43;;;4.80;;
14754;SDS011;7469;50.906;6.952;2023-09-18T00:55:45;7.70;;;4.47;;
14754;SDS011;7469;50.906;6.952;2023-09-18T00:58:13;10.90;;;5.07;;
14754;SDS011;7469;50.906;6.952;2023-09-18T01:00:44;12.40;;;4.93;;
14754;SDS011;7469;50.906;6.952;2023-09-18T01:03:12;8.17;;;5.03;;
14754;SDS011;7469;50.906;6.952;2023-09-18T01:05:43;10.23;;;5.00;;
14754;SDS011;7469;50.906;6.952;2023-09-18T01:08:11;5.90;;;4.73;;
14754;SDS011;7469;50.906;6.952;2023-09-18T01:10:40;14.77;;;4.90;;
14754;SDS011;7469;50.906;6.952;2023-09-18T01:13:29;7.30;;;4.57;;
14754;SDS011;7469;50.906;6.952;2023-09-18T01:16:06;8.43;;;4.57;;
14754;SDS011;7469;50.906;6.952;2023-09-18T01:18:41;10.17;;;4.77;;
14754;SDS011;7469;50.906;6.952;2023-09-18T01:21:18;10.63;;;5.03;;
14754;SDS011;7469;50.906;6.952;2023-09-18T01:23:48;7.37;;;4.50;;
14754;SDS011;7469;50.906;6.952;2023-09-18T01:26:17;15.57;;;4.83;;
14754;SDS011;7469;50.906;6.952;2023-09-18T01:28:45;9.10;;;4.80;;
14754;SDS011;7469;50.906;6.952;2023-09-18T01:31:14;9.47;;;4.63;;
14754;SDS011;7469;50.906;6.952;2023-09-18T01:33:43;10.10;;;4.33;;
14754;SDS011;7469;50.906;6.952;2023-09-18T01:36:13;10.10;;;4.30;;
14754;SDS011;7469;50.906;6.952;2023-09-18T01:38:44;9.13;;;4.77;;
14754;SDS011;7469;50.906;6.952;2023-09-18T01:41:14;6.23;;;4.13;;
14754;SDS011;7469;50.906;6.952;2023-09-18T01:43:43;7.77;;;4.63;;
14754;SDS011;7469;50.906;6.952;2023-09-18T01:46:12;8.50;;;4.53;;
14754;SDS011;7469;50.906;6.952;2023-09-18T01:48:44;11.00;;;4.63;;
14754;SDS011;7469;50.906;6.952;2023-09-18T01:51:13;12.07;;;4.77;;
14754;SDS011;7469;50.906;6.952;2023-09-18T01:53:42;9.73;;;4.53;;
14754;SDS011;7469;50.906;6.952;2023-09-18T01:56:10;7.03;;;4.13;;
14754;SDS011;7469;50.906;6.952;2023-09-18T01:58:39;9.20;;;4.60;;
14754;SDS011;7469;50.906;6.952;2023-09-18T02:01:08;11.77;;;4.93;;
14754;SDS011;7469;50.906;6.952;2023-09-18T02:03:36;8.07;;;5.03;;
14754;SDS011;7469;50.906;6.952;2023-09-18T02:06:27;12.77;;;4.90;;
14754;SDS011;7469;50.906;6.952;2023-09-18T02:08:56;8.20;;;4.57;;
14754;SDS011;7469;50.906;6.952;2023-09-18T02:11:24;9.50;;;4.73;;
14754;SDS011;7469;50.906;6.952;2023-09-18T02:13:54;8.53;;;4.83;;
14754;SDS011;7469;50.906;6.952;2023-09-18T02:16:22;6.17;;;4.33;;
14754;SDS011;7469;50.906;6.952;2023-09-18T02:18:50;8.23;;;4.90;;
14754;SDS011;7469;50.906;6.952;2023-09-18T02:21:19;12.37;;;4.63;;
14754;SDS011;7469;50.906;6.952;2023-09-18T02:23:48;8.50;;;4.53;;
14754;SDS011;7469;50.906;6.952;2023-09-18T02:26:17;7.80;;;4.83;;
14754;SDS011;7469;50.906;6.952;2023-09-18T02:28:45;6.63;;;4.60;;
14754;SDS011;7469;50.906;6.952;2023-09-18T02:31:15;9.00;;;4.67;;
14754;SDS011;7469;50.906;6.952;2023-09-18T02:33:43;7.80;;;4.40;;
14754;SDS011;7469;50.906;6.952;2023-09-18T02:36:11;7.40;;;4.33;;
14754;SDS011;7469;50.906;6.952;2023-09-18T02:38:39;7.97;;;4.67;;
14754;SDS011;7469;50.906;6.952;2023-09-18T02:41:07;8.33;;;4.10;;
14754;SDS011;7469;50.906;6.952;2023-09-18T02:43:35;6.43;;;4.43;;
14754;SDS011;7469;50.906;6.952;2023-09-18T02:46:04;7.50;;;4.70;;
14754;SDS011;7469;50.906;6.952;2023-09-18T02:48:34;11.13;;;4.63;;
14754;SDS011;7469;50.906;6.952;2023-09-18T02:51:02;9.07;;;4.50;;
14754;SDS011;7469;50.906;6.952;2023-09-18T02:53:30;8.47;;;4.97;;
14754;SDS011;7469;50.906;6.952;2023-09-18T02:55:59;9.50;;;4.50;;
14754;SDS011;7469;50.906;6.952;2023-09-18T02:58:27;7.53;;;4.80;;
14754;SDS011;7469;50.906;6.952;2023-09-18T03:00:56;11.87;;;5.07;;
14754;SDS011;7469;50.906;6.952;2023-09-18T03:03:25;7.20;;;4.80;;
14754;SDS011;7469;50.906;6.952;2023-09-18T03:05:59;9.90;;;5.43;;
14754;SDS011;7469;50.906;6.952;2023-09-18T03:08:28;7.77;;;4.30;;
14754;SDS011;7469;50.906;6.952;2023-09-18T03:10:56;8.63;;;5.07;;
14754;SDS011;7469;50.906;6.952;2023-09-18T03:13:25;8.83;;;5.20;;
14754;SDS011;7469;50.906;6.952;2023-09-18T03:15:54;8.50;;;5.23;;
14754;SDS011;7469;50.906;6.952;2023-09-18T03:18:22;11.10;;;5.10;;
14754;SDS011;7469;50.906;6.952;2023-09-18T03:20:50;9.00;;;5.30;;
14754;SDS011;7469;50.906;6.952;2023-09-18T03:23:19;8.77;;;5.20;;
14754;SDS011;7469;50.906;6.952;2023-09-18T03:25:47;8.63;;;5.13;;
14754;SDS011;7469;50.906;6.952;2023-09-18T03:28:17;9.57;;;5.50;;
14754;SDS011;7469;50.906;6.952;2023-09-18T03:30:45;9.60;;;5.27;;
14754;SDS011;7469;50.906;6.952;2023-09-18T03:33:13;6.80;;;4.73;;
14754;SDS011;7469;50.906;6.952;2023-09-18T03:35:45;7.80;;;5.40;;
14754;SDS011;7469;50.906;6.952;2023-09-18T03:38:14;7.50;;;5.03;;
14754;SDS011;7469;50.906;6.952;2023-09-18T03:40:44;8.53;;;4.80;;
14754;SDS011;7469;50.906;6.952;2023-09-18T03:43:12;9.03;;;4.77;;
14754;SDS011;7469;50.906;6.952;2023-09-18T03:45:40;9.93;;;4.67;;
14754;SDS011;7469;50.906;6.952;2023-09-18T03:48:08;10.73;;;4.47;;
14754;SDS011;7469;50.906;6.952;2023-09-18T03:50:37;6.57;;;4.40;;
14754;SDS011;7469;50.906;6.952;2023-09-18T03:53:07;8.57;;;4.93;;
14754;SDS011;7469;50.906;6.952;2023-09-18T03:55:35;9.57;;;4.03;;
14754;SDS011;7469;50.906;6.952;2023-09-18T03:58:05;7.90;;;3.83;;
14754;SDS011;7469;50.906;6.952;2023-09-18T04:00:33;8.43;;;4.33;;
14754;SDS011;7469;50.906;6.952;2023-09-18T04:03:01;6.47;;;4.07;;
14754;SDS011;7469;50.906;6.952;2023-09-18T04:05:30;10.70;;;4.27;;
14754;SDS011;7469;50.906;6.952;2023-09-18T04:07:58;9.73;;;4.63;;
14754;SDS011;7469;50.906;6.952;2023-09-18T04:10:26;13.93;;;4.57;;
14754;SDS011;7469;50.906;6.952;2023-09-18T04:12:54;10.53;;;4.50;;
14754;SDS011;7469;50.906;6.952;2023-09-18T04:15:22;7.10;;;4.47;;
14754;SDS011;7469;50.906;6.952;2023-09-18T04:17:50;7.07;;;4.13;;
14754;SDS011;7469;50.906;6.952;2023-09-18T04:20:19;14.60;;;4.60;;
14754;SDS011;7469;50.906;6.952;2023-09-18T04:22:47;11.00;;;4.60;;
14754;SDS011;7469;50.906;6.952;2023-09-18T04:25:17;13.57;;;4.17;;
14754;SDS011;7469;50.906;6.952;2023-09-18T04:27:48;7.73;;;4.30;;
14754;SDS011;7469;50.906;6.952;2023-09-18T04:30:18;11.77;;;4.37;;
14754;SDS011;7469;50.906;6.952;2023-09-18T04:32:48;16.17;;;4.40;;
14754;SDS011;7469;50.906;6.952;2023-09-18T04:35:18;8.47;;;4.00;;
14754;SDS011;7469;50.906;6.952;2023-09-18T04:37:46;11.40;;;4.53;;
14754;SDS011;7469;50.906;6.952;2023-09-18T04:40:14;13.10;;;5.13;;
14754;SDS011;7469;50.906;6.952;2023-09-18T04:42:43;10.60;;;4.03;;
14754;SDS011;7469;50.906;6.952;2023-09-18T04:45:11;11.23;;;4.60;;
14754;SDS011;7469;50.906;6.952;2023-09-18T04:47:39;10.90;;;4.20;;
14754;SDS011;7469;50.906;6.952;2023-09-18T04:50:09;12.60;;;4.23;;
14754;SDS011;7469;50.906;6.952;2023-09-18T04:52:39;9.93;;;4.03;;
14754;SDS011;7469;50.906;6.952;2023-09-18T04:55:09;10.57;;;4.20;;
14754;SDS011;7469;50.906;6.952;2023-09-18T04:57:37;10.50;;;4.43;;
14754;SDS011;7469;50.906;6.952;2023-09-18T05:00:06;14.63;;;4.57;;
14754;SDS011;7469;50.906;6.952;2023-09-18T05:02:43;11.23;;;4.00;;
14754;SDS011;7469;50.906;6.952;2023-09-18T05:05:13;12.03;;;4.10;;
14754;SDS011;7469;50.906;6.952;2023-09-18T05:07:41;10.10;;;4.33;;
14754;SDS011;7469;50.906;6.952;2023-09-18T05:10:09;10.70;;;4.90;;
14754;SDS011;7469;50.906;6.952;2023-09-18T05:12:38;12.40;;;4.60;;
14754;SDS011;7469;50.906;6.952;2023-09-18T05:15:07;12.03;;;4.37;;
14754;SDS011;7469;50.906;6.952;2023-09-18T05:17:39;12.10;;;4.40;;
14754;SDS011;7469;50.906;6.952;2023-09-18T05:20:15;16.23;;;4.57;;
14754;SDS011;7469;50.906;6.952;2023-09-18T05:22:44;10.53;;;4.13;;
14754;SDS011;7469;50.906;6.952;2023-09-18T05:25:13;10.13;;;4.17;;
14754;SDS011;7469;50.906;6.952;2023-09-18T05:27:42;15.60;;;4.43;;
14754;SDS011;7469;50.906;6.952;2023-09-18T05:30:12;8.60;;;4.23;;
14754;SDS011;7469;50.906;6.952;2023-09-18T05:32:42;11.70;;;4.37;;
14754;SDS011;7469;50.906;6.952;2023-09-18T05:35:12;11.90;;;4.43;;
14754;SDS011;7469;50.906;6.952;2023-09-18T05:37:41;14.33;;;5.20;;
14754;SDS011;7469;50.906;6.952;2023-09-18T05:40:10;10.73;;;4.17;;
14754;SDS011;7469;50.906;6.952;2023-09-18T05:42:40;9.80;;;4.07;;
14754;SDS011;7469;50.906;6.952;2023-09-18T05:45:10;12.33;;;4.10;;
14754;SDS011;7469;50.906;6.952;2023-09-18T05:47:39;6.73;;;3.87;;
14754;SDS011;7469;50.906;6.952;2023-09-18T05:50:07;12.00;;;3.53;;
14754;SDS011;7469;50.906;6.952;2023-09-18T05:52:42;11.47;;;3.90;;
14754;SDS011;7469;50.906;6.952;2023-09-18T05:55:11;8.60;;;3.33;;
14754;SDS011;7469;50.906;6.952;2023-09-18T05:57:40;10.67;;;3.67;;
14754;SDS011;7469;50.906;6.952;2023-09-18T06:00:09;8.87;;;3.53;;
14754;SDS011;7469;50.906;6.952;2023-09-18T06:02:39;9.83;;;3.10;;
14754;SDS011;7469;50.906;6.952;2023-09-18T06:05:07;12.17;;;3.40;;
14754;SDS011;7469;50.906;6.952;2023-09-18T06:07:37;8.07;;;3.60;;
14754;SDS011;7469;50.906;6.952;2023-09-18T06:10:07;15.43;;;3.83;;
14754;SDS011;7469;50.906;6.952;2023-09-18T06:12:38;10.23;;;3.63;;
14754;SDS011;7469;50.906;6.952;2023-09-18T06:15:06;7.07;;;3.10;;
14754;SDS011;7469;50.906;6.952;2023-09-18T06:17:36;10.33;;;3.27;;
14754;SDS011;7469;50.906;6.952;2023-09-18T06:20:06;7.47;;;2.73;;
14754;SDS011;7469;50.906;6.952;2023-09-18T06:22:36;7.57;;;2.80;;
14754;SDS011;7469;50.906;6.952;2023-09-18T06:25:07;11.50;;;3.20;;
14754;SDS011;7469;50.906;6.952;2023-09-18T06:27:37;5.50;;;2.67;;
14754;SDS011;7469;50.906;6.952;2023-09-18T06:30:05;8.23;;;2.57;;
14754;SDS011;7469;50.906;6.952;2023-09-18T06:32:34;9.67;;;2.53;;
14754;SDS011;7469;50.906;6.952;2023-09-18T06:35:04;11.57;;;3.60;;
14754;SDS011;7469;50.906;6.952;2023-09-18T06:37:32;8.97;;;3.33;;
14754;SDS011;7469;50.906;6.952;2023-09-18T06:40:00;5.87;;;2.20;;
14754;SDS011;7469;50.906;6.952;2023-09-18T06:42:31;6.37;;;2.17;;
14754;SDS011;7469;50.906;6.952;2023-09-18T06:45:00;3.87;;;2.13;;
14754;SDS011;7469;50.906;6.952;2023-09-18T06:47:28;8.63;;;2.50;;
14754;SDS011;7469;50.906;6.952;2023-09-18T06:49:56;7.70;;;2.20;;
14754;SDS011;7469;50.906;6.952;2023-09-18T06:52:24;5.27;;;2.27;;
14754;SDS011;7469;50.906;6.952;2023-09-18T06:54:53;5.00;;;2.37;;
14754;SDS011;7469;50.906;6.952;2023-09-18T06:57:21;9.13;;;2.60;;
14754;SDS011;7469;50.906;6.952;2023-09-18T06:59:50;5.80;;;2.50;;
14754;SDS011;7469;50.906;6.952;2023-09-18T07:02:18;5.63;;;2.50;;
14754;SDS011;7469;50.906;6.952;2023-09-18T07:04:46;8.93;;;2.63;;
14754;SDS011;7469;50.906;6.952;2023-09-18T07:07:14;5.77;;;2.07;;
14754;SDS011;7469;50.906;6.952;2023-09-18T07:09:43;3.17;;;2.00;;
14754;SDS011;7469;50.906;6.952;2023-09-18T07:12:14;5.13;;;1.80;;
14754;SDS011;7469;50.906;6.952;2023-09-18T07:14:45;4.83;;;2.17;;
14754;SDS011;7469;50.906;6.952;2023-09-18T07:17:14;5.30;;;2.13;;
14754;SDS011;7469;50.906;6.952;2023-09-18T07:19:42;5.27;;;1.70;;
14754;SDS011;7469;50.906;6.952;2023-09-18T07:22:10;6.30;;;2.17;;
14754;SDS011;7469;50.906;6.952;2023-09-18T07:24:38;6.83;;;2.20;;
14754;SDS011;7469;50.906;6.952;2023-09-18T07:27:09;4.23;;;1.97;;
14754;SDS011;7469;50.906;6.952;2023-09-18T07:29:37;6.13;;;2.20;;
14754;SDS011;7469;50.906;6.952;2023-09-18T07:32:05;8.77;;;1.87;;
14754;SDS011;7469;50.906;6.952;2023-09-18T07:34:34;4.40;;;1.70;;
14754;SDS011;7469;50.906;6.952;2023-09-18T07:37:02;5.50;;;2.00;;
14754;SDS011;7469;50.906;6.952;2023-09-18T07:39:30;4.67;;;1.50;;
14754;SDS011;7469;50.906;6.952;2023-09-18T07:41:58;5.60;;;2.20;;
14754;SDS011;7469;50.906;6.952;2023-09-18T07:44:26;4.10;;;1.90;;
14754;SDS011;7469;50.906;6.952;2023-09-18T07:46:55;3.33;;;1.70;;
14754;SDS011;7469;50.906;6.952;2023-09-18T07:49:23;3.20;;;1.60;;
14754;SDS011;7469;50.906;6.952;2023-09-18T07:51:52;1.93;;;1.60;;
14754;SDS011;7469;50.906;6.952;2023-09-18T07:54:20;6.03;;;2.00;;
14754;SDS011;7469;50.906;6.952;2023-09-18T07:56:48;3.43;;;2.10;;
14754;SDS011;7469;50.906;6.952;2023-09-18T07:59:16;5.53;;;1.73;;
14754;SDS011;7469;50.906;6.952;2023-09-18T08:01:44;4.17;;;2.27;;
14754;SDS011;7469;50.906;6.952;2023-09-18T08:04:12;4.77;;;1.70;;
14754;SDS011;7469;50.906;6.952;2023-09-18T08:06:40;5.63;;;2.47;;
14754;SDS011;7469;50.906;6.952;2023-09-18T08:09:10;3.40;;;1.70;;
14754;SDS011;7469;50.906;6.952;2023-09-18T08:11:39;2.87;;;1.83;;
14754;SDS011;7469;50.906;6.952;2023-09-18T08:14:13;3.87;;;1.67;;
14754;SDS011;7469;50.906;6.952;2023-09-18T08:16:41;4.17;;;1.60;;
14754;SDS011;7469;50.906;6.952;2023-09-18T08:19:09;10.47;;;1.63;;
14754;SDS011;7469;50.906;6.952;2023-09-18T08:21:37;4.87;;;1.83;;
14754;SDS011;7469;50.906;6.952;2023-09-18T08:24:05;9.93;;;1.87;;
14754;SDS011;7469;50.906;6.952;2023-09-18T08:26:34;6.70;;;1.80;;
14754;SDS011;7469;50.906;6.952;2023-09-18T08:29:03;4.23;;;1.60;;
14754;SDS011;7469;50.906;6.952;2023-09-18T08:31:31;4.20;;;1.50;;
14754;SDS011;7469;50.906;6.952;2023-09-18T08:33:59;2.53;;;1.57;;
14754;SDS011;7469;50.906;6.952;2023-09-18T08:36:27;2.50;;;1.60;;
14754;SDS011;7469;50.906;6.952;2023-09-18T08:38:56;4.83;;;2.03;;
14754;SDS011;7469;50.906;6.952;2023-09-18T08:41:24;3.93;;;1.77;;
14754;SDS011;7469;50.906;6.952;2023-09-18T08:44:00;2.63;;;1.57;;
14754;SDS011;7469;50.906;6.952;2023-09-18T08:46:30;3.87;;;1.67;;
14754;SDS011;7469;50.906;6.952;2023-09-18T08:49:00;5.47;;;1.97;;
14754;SDS011;7469;50.906;6.952;2023-09-18T08:51:28;3.20;;;1.60;;
14754;SDS011;7469;50.906;6.952;2023-09-18T08:53:57;4.87;;;1.70;;
14754;SDS011;7469;50.906;6.952;2023-09-18T08:56:25;2.50;;;1.67;;
14754;SDS011;7469;50.906;6.952;2023-09-18T08:58:55;5.23;;;2.00;;
14754;SDS011;7469;50.906;6.952;2023-09-18T09:01:25;4.47;;;1.83;;
14754;SDS011;7469;50.906;6.952;2023-09-18T09:03:53;5.23;;;1.70;;
14754;SDS011;7469;50.906;6.952;2023-09-18T09:06:21;2.73;;;1.47;;
14754;SDS011;7469;50.906;6.952;2023-09-18T09:08:49;5.30;;;2.00;;
14754;SDS011;7469;50.906;6.952;2023-09-18T09:11:18;3.73;;;1.27;;
14754;SDS011;7469;50.906;6.952;2023-09-18T09:13:46;3.30;;;1.77;;
14754;SDS011;7469;50.906;6.952;2023-09-18T09:16:15;5.57;;;3.67;;
14754;SDS011;7469;50.906;6.952;2023-09-18T09:18:48;5.00;;;1.50;;
14754;SDS011;7469;50.906;6.952;2023-09-18T09:21:18;3.63;;;1.50;;
14754;SDS011;7469;50.906;6.952;2023-09-18T09:23:47;3.00;;;1.73;;
14754;SDS011;7469;50.906;6.952;2023-09-18T09:26:18;3.93;;;1.47;;
14754;SDS011;7469;50.906;6.952;2023-09-18T09:28:47;2.73;;;1.50;;
14754;SDS011;7469;50.906;6.952;2023-09-18T09:31:23;2.53;;;1.67;;
14754;SDS011;7469;50.906;6.952;2023-09-18T09:33:53;6.57;;;1.70;;
14754;SDS011;7469;50.906;6.952;2023-09-18T09:36:22;4.90;;;1.63;;
14754;SDS011;7469;50.906;6.952;2023-09-18T09:38:54;5.10;;;1.90;;
14754;SDS011;7469;50.906;6.952;2023-09-18T09:41:24;3.77;;;1.73;;
14754;SDS011;7469;50.906;6.952;2023-09-18T09:43:54;3.53;;;1.70;;
14754;SDS011;7469;50.906;6.952;2023-09-18T09:46:23;4.33;;;1.57;;
14754;SDS011;7469;50.906;6.952;2023-09-18T09:49:00;2.60;;;1.30;;
14754;SDS011;7469;50.906;6.952;2023-09-18T09:51:29;3.33;;;1.50;;
14754;SDS011;7469;50.906;6.952;2023-09-18T09:53:57;9.53;;;1.70;;
14754;SDS011;7469;50.906;6.952;2023-09-18T09:56:43;14.70;;;2.03;;
14754;SDS011;7469;50.906;6.952;2023-09-18T09:59:13;6.53;;;1.70;;
14754;SDS011;7469;50.906;6.952;2023-09-18T10:01:41;4.57;;;1.47;;
14754;SDS011;7469;50.906;6.952;2023-09-18T10:04:13;4.17;;;1.63;;
14754;SDS011;7469;50.906;6.952;2023-09-18T10:06:44;5.73;;;1.50;;
14754;SDS011;7469;50.906;6.952;2023-09-18T10:09:15;1.50;;;1.30;;
14754;SDS011;7469;50.906;6.952;2023-09-18T10:11:45;8.77;;;1.50;;
14754;SDS011;7469;50.906;6.952;2023-09-18T10:14:17;2.27;;;1.30;;
14754;SDS011;7469;50.906;6.952;2023-09-18T10:16:49;2.97;;;1.60;;
14754;SDS011;7469;50.906;6.952;2023-09-18T10:19:24;5.57;;;1.40;;
14754;SDS011;7469;50.906;6.952;2023-09-18T10:22:01;2.10;;;1.40;;
14754;SDS011;7469;50.906;6.952;2023-09-18T10:24:37;3.30;;;1.60;;
14754;SDS011;7469;50.906;6.952;2023-09-18T10:27:08;4.00;;;1.53;;
14754;SDS011;7469;50.906;6.952;2023-09-18T10:29:37;3.70;;;1.00;;
14754;SDS011;7469;50.906;6.952;2023-09-18T10:32:10;1.20;;;1.10;;
14754;SDS011;7469;50.906;6.952;2023-09-18T10:34:42;2.43;;;1.20;;
14754;SDS011;7469;50.906;6.952;2023-09-18T10:37:11;3.17;;;1.27;;
14754;SDS011;7469;50.906;6.952;2023-09-18T10:39:41;2.80;;;1.17;;
14754;SDS011;7469;50.906;6.952;2023-09-18T10:42:14;2.03;;;1.50;;
14754;SDS011;7469;50.906;6.952;2023-09-18T10:44:46;5.20;;;1.43;;
14754;SDS011;7469;50.906;6.952;2023-09-18T10:47:14;2.57;;;1.23;;
14754;SDS011;7469;50.906;6.952;2023-09-18T10:49:45;1.73;;;1.20;;
14754;SDS011;7469;50.906;6.952;2023-09-18T10:52:16;3.30;;;1.30;;
14754;SDS011;7469;50.906;6.952;2023-09-18T10:54:44;5.63;;;1.30;;
14754;SDS011;7469;50.906;6.952;2023-09-18T10:57:12;5.70;;;1.20;;
14754;SDS011;7469;50.906;6.952;2023-09-18T10:59:43;7.93;;;1.43;;
14754;SDS011;7469;50.906;6.952;2023-09-18T11:02:13;1.80;;;1.10;;
14754;SDS011;7469;50.906;6.952;2023-09-18T11:04:42;5.00;;;1.37;;
14754;SDS011;7469;50.906;6.952;2023-09-18T11:07:19;2.53;;;1.13;;
14754;SDS011;7469;50.906;6.952;2023-09-18T11:09:47;2.37;;;1.60;;
14754;SDS011;7469;50.906;6.952;2023-09-18T11:12:16;3.53;;;1.27;;
14754;SDS011;7469;50.906;6.952;2023-09-18T11:14:45;2.87;;;1.10;;
14754;SDS011;7469;50.906;6.952;2023-09-18T11:17:29;2.83;;;1.60;;
14754;SDS011;7469;50.906;6.952;2023-09-18T11:20:04;6.33;;;2.07;;
14754;SDS011;7469;50.906;6.952;2023-09-18T11:22:35;3.23;;;1.30;;
14754;SDS011;7469;50.906;6.952;2023-09-18T11:28:00;3.77;;;1.50;;
14754;SDS011;7469;50.906;6.952;2023-09-18T11:30:29;5.70;;;1.40;;
14754;SDS011;7469;50.906;6.952;2023-09-18T11:32:59;1.57;;;1.10;;
14754;SDS011;7469;50.906;6.952;2023-09-18T11:35:28;3.33;;;1.17;;
14754;SDS011;7469;50.906;6.952;2023-09-18T11:38:04;3.77;;;1.40;;
14754;SDS011;7469;50.906;6.952;2023-09-18T11:40:34;3.47;;;1.23;;
14754;SDS011;7469;50.906;6.952;2023-09-18T11:43:21;4.17;;;1.70;;
14754;SDS011;7469;50.906;6.952;2023-09-18T11:45:56;3.63;;;1.43;;
14754;SDS011;7469;50.906;6.952;2023-09-18T11:48:27;5.40;;;1.20;;
14754;SDS011;7469;50.906;6.952;2023-09-18T11:50:57;4.63;;;1.33;;
14754;SDS011;7469;50.906;6.952;2023-09-18T11:53:27;3.93;;;1.50;;
14754;SDS011;7469;50.906;6.952;2023-09-18T11:55:56;4.90;;;1.70;;
14754;SDS011;7469;50.906;6.952;2023-09-18T11:58:24;4.33;;;1.37;;
14754;SDS011;7469;50.906;6.952;2023-09-18T12:00:52;4.83;;;1.60;;
14754;SDS011;7469;50.906;6.952;2023-09-18T12:03:22;5.07;;;1.60;;
14754;SDS011;7469;50.906;6.952;2023-09-18T12:05:54;3.47;;;1.63;;
14754;SDS011;7469;50.906;6.952;2023-09-18T12:08:26;2.80;;;1.20;;
14754;SDS011;7469;50.906;6.952;2023-09-18T12:10:59;1.73;;;1.40;;
14754;SDS011;7469;50.906;6.952;2023-09-18T12:13:31;1.70;;;1.30;;
14754;SDS011;7469;50.906;6.952;2023-09-18T12:16:00;1.63;;;1.17;;
14754;SDS011;7469;50.906;6.952;2023-09-18T12:18:31;4.00;;;1.20;;
14754;SDS011;7469;50.906;6.952;2023-09-18T12:21:01;1.73;;;1.20;;
14754;SDS011;7469;50.906;6.952;2023-09-18T12:23:38;4.83;;;1.40;;
14754;SDS011;7469;50.906;6.952;2023-09-18T12:26:09;3.23;;;1.43;;
14754;SDS011;7469;50.906;6.952;2023-09-18T12:28:39;2.23;;;1.30;;
14754;SDS011;7469;50.906;6.952;2023-09-18T12:31:09;2.70;;;1.60;;
14754;SDS011;7469;50.906;6.952;2023-09-18T12:33:38;3.50;;;1.23;;
14754;SDS011;7469;50.906;6.952;2023-09-18T12:36:10;1.47;;;1.10;;
14754;SDS011;7469;50.906;6.952;2023-09-18T12:38:42;1.47;;;1.30;;
14754;SDS011;7469;50.906;6.952;2023-09-18T12:41:10;4.30;;;1.50;;
14754;SDS011;7469;50.906;6.952;2023-09-18T12:43:39;2.23;;;1.50;;
14754;SDS011;7469;50.906;6.952;2023-09-18T12:46:08;2.17;;;1.50;;
14754;SDS011;7469;50.906;6.952;2023-09-18T12:48:37;1.30;;;1.20;;
14754;SDS011;7469;50.906;6.952;2023-09-18T12:51:11;3.90;;;1.40;;
14754;SDS011;7469;50.906;6.952;2023-09-18T12:53:41;2.83;;;1.30;;
14754;SDS011;7469;50.906;6.952;2023-09-18T12:56:10;3.57;;;1.47;;
14754;SDS011;7469;50.906;6.952;2023-09-18T12:58:39;1.97;;;1.20;;
14754;SDS011;7469;50.906;6.952;2023-09-18T13:01:28;4.87;;;1.47;;
14754;SDS011;7469;50.906;6.952;2023-09-18T13:03:56;4.43;;;1.40;;
14754;SDS011;7469;50.906;6.952;2023-09-18T13:06:26;5.83;;;1.63;;
14754;SDS011;7469;50.906;6.952;2023-09-18T13:08:55;1.97;;;1.30;;
14754;SDS011;7469;50.906;6.952;2023-09-18T13:11:55;2.40;;;1.40;;
14754;SDS011;7469;50.906;6.952;2023-09-18T13:14:24;4.57;;;1.30;;
14754;SDS011;7469;50.906;6.952;2023-09-18T13:16:53;3.00;;;1.50;;
14754;SDS011;7469;50.906;6.952;2023-09-18T13:19:27;1.60;;;1.30;;
14754;SDS011;7469;50.906;6.952;2023-09-18T13:21:55;2.90;;;1.40;;
14754;SDS011;7469;50.906;6.952;2023-09-18T13:24:26;2.70;;;1.40;;
14754;SDS011;7469;50.906;6.952;2023-09-18T13:26:56;2.30;;;1.27;;
14754;SDS011;7469;50.906;6.952;2023-09-18T13:29:25;4.13;;;1.97;;
14754;SDS011;7469;50.906;6.952;2023-09-18T13:31:53;2.27;;;1.47;;
14754;SDS011;7469;50.906;6.952;2023-09-18T13:34:21;2.63;;;1.33;;
14754;SDS011;7469;50.906;6.952;2023-09-18T13:36:49;2.80;;;1.30;;
14754;SDS011;7469;50.906;6.952;2023-09-18T13:39:17;2.83;;;1.50;;
14754;SDS011;7469;50.906;6.952;2023-09-18T13:41:48;2.57;;;1.40;;
14754;SDS011;7469;50.906;6.952;2023-09-18T13:44:16;3.60;;;1.60;;
14754;SDS011;7469;50.906;6.952;2023-09-18T13:46:48;1.97;;;1.47;;
14754;SDS011;7469;50.906;6.952;2023-09-18T13:49:16;1.30;;;1.20;;
14754;SDS011;7469;50.906;6.952;2023-09-18T13:51:44;1.63;;;1.30;;
14754;SDS011;7469;50.906;6.952;2023-09-18T13:54:12;1.40;;;1.30;;
14754;SDS011;7469;50.906;6.952;2023-09-18T13:56:40;2.00;;;1.30;;
14754;SDS011;7469;50.906;6.952;2023-09-18T13:59:10;2.80;;;1.40;;
14754;SDS011;7469;50.906;6.952;2023-09-18T14:01:39;1.50;;;1.40;;
14754;SDS011;7469;50.906;6.952;2023-09-18T14:04:07;4.50;;;1.70;;
14754;SDS011;7469;50.906;6.952;2023-09-18T14:06:35;1.20;;;1.13;;
14754;SDS011;7469;50.906;6.952;2023-09-18T14:09:04;4.37;;;1.50;;
14754;SDS011;7469;50.906;6.952;2023-09-18T14:11:32;3.20;;;1.60;;
14754;SDS011;7469;50.906;6.952;2023-09-18T14:14:04;2.37;;;1.40;;
14754;SDS011;7469;50.906;6.952;2023-09-18T14:16:34;2.57;;;1.33;;
14754;SDS011;7469;50.906;6.952;2023-09-18T14:19:02;1.97;;;1.20;;
14754;SDS011;7469;50.906;6.952;2023-09-18T14:21:30;4.53;;;1.17;;
14754;SDS011;7469;50.906;6.952;2023-09-18T14:24:00;1.30;;;1.20;;
14754;SDS011;7469;50.906;6.952;2023-09-18T14:26:28;2.43;;;1.50;;
14754;SDS011;7469;50.906;6.952;2023-09-18T14:28:56;2.20;;;1.20;;
14754;SDS011;7469;50.906;6.952;2023-09-18T14:31:24;1.57;;;1.30;;
14754;SDS011;7469;50.906;6.952;2023-09-18T14:33:54;3.57;;;1.80;;
14754;SDS011;7469;50.906;6.952;2023-09-18T14:36:25;2.37;;;1.40;;
14754;SDS011;7469;50.906;6.952;2023-09-18T14:38:53;2.30;;;1.27;;
14754;SDS011;7469;50.906;6.952;2023-09-18T14:41:21;2.30;;;1.50;;
14754;SDS011;7469;50.906;6.952;2023-09-18T14:43:51;2.57;;;1.50;;
14754;SDS011;7469;50.906;6.952;2023-09-18T14:46:19;2.93;;;1.87;;
14754;SDS011;7469;50.906;6.952;2023-09-18T14:48:49;2.20;;;1.37;;
14754;SDS011;7469;50.906;6.952;2023-09-18T14:51:18;1.77;;;1.23;;
14754;SDS011;7469;50.906;6.952;2023-09-18T14:53:46;1.93;;;1.40;;
14754;SDS011;7469;50.906;6.952;2023-09-18T14:56:14;2.43;;;1.33;;
14754;SDS011;7469;50.906;6.952;2023-09-18T14:58:42;5.57;;;1.70;;
14754;SDS011;7469;50.906;6.952;2023-09-18T15:01:10;2.23;;;1.63;;
14754;SDS011;7469;50.906;6.952;2023-09-18T15:04:00;3.00;;;1.20;;
14754;SDS011;7469;50.906;6.952;2023-09-18T15:06:30;2.30;;;1.40;;
14754;SDS011;7469;50.906;6.952;2023-09-18T15:08:59;2.23;;;1.50;;
14754;SDS011;7469;50.906;6.952;2023-09-18T15:11:29;2.00;;;1.37;;
14754;SDS011;7469;50.906;6.952;2023-09-18T15:13:57;4.63;;;1.73;;
14754;SDS011;7469;50.906;6.952;2023-09-18T15:16:25;2.07;;;1.30;;